sensor_id;sensor_type;location;lat;lon;timestamp;pressure;altitude;pressure_sealevel;temperature;humidity
76694;BME280;69667;52.136;5.424;2023-10-31T00:00:23;99709.06;;;9.47;100.00
76694;BME280;69667;52.136;5.424;2023-10-31T00:02:51;99713.03;;;9.43;100.00
76694;BME280;69667;52.136;5.424;2023-10-31T00:05:19;99706.34;;;9.37;100.00
76694;BME280;69667;52.136;5.424;2023-10-31T00:07:48;99714.56;;;9.36;100.00
76694;BME280;69667;52.136;5.424;2023-10-31T00:10:16;99717.25;;;9.36;100.00
76694;BME280;69667;52.136;5.424;2023-10-31T00:12:44;99708.72;;;9.31;100.00
76694;BME280;69667;52.136;5.424;2023-10-31T00:15:13;99706.16;;;9.29;100.00
76694;BME280;69667;52.136;5.424;2023-10-31T00:17:41;99714.13;;;9.31;100.00
76694;BME280;69667;52.136;5.424;2023-10-31T00:20:10;99713.13;;;9.32;100.00
76694;BME280;69667;52.136;5.424;2023-10-31T00:22:38;99719.63;;;9.29;100.00
76694;BME280;69667;52.136;5.424;2023-10-31T00:25:06;99719.63;;;9.29;100.00
76694;BME280;69667;52.136;5.424;2023-10-31T00:27:35;99717.78;;;9.30;100.00
76694;BME280;69667;52.136;5.424;2023-10-31T00:30:03;99729.13;;;9.33;100.00
76694;BME280;69667;52.136;5.424;2023-10-31T00:32:32;99739.06;;;9.33;100.00
76694;BME280;69667;52.136;5.424;2023-10-31T00:35:00;99732.69;;;9.34;100.00
76694;BME280;69667;52.136;5.424;2023-10-31T00:37:29;99718.22;;;9.35;100.00
76694;BME280;69667;52.136;5.424;2023-10-31T00:39:57;99734.28;;;9.36;100.00
76694;BME280;69667;52.136;5.424;2023-10-31T00:42:26;99726.44;;;9.33;100.00
76694;BME280;69667;52.136;5.424;2023-10-31T00:44:54;99725.59;;;9.33;100.00
76694;BME280;69667;52.136;5.424;2023-10-31T00:47:22;99722.19;;;9.31;100.00
76694;BME280;69667;52.136;5.424;2023-10-31T00:49:50;99724.75;;;9.32;100.00
76694;BME280;69667;52.136;5.424;2023-10-31T00:52:20;99725.75;;;9.31;100.00
76694;BME280;69667;52.136;5.424;2023-10-31T00:54:48;99739.22;;;9.31;100.00
76694;BME280;69667;52.136;5.424;2023-10-31T00:57:17;99739.22;;;9.31;100.00
76694;BME280;69667;52.136;5.424;2023-10-31T00:59:45;99742.00;;;9.30;100.00
76694;BME280;69667;52.136;5.424;2023-10-31T01:02:13;99747.41;;;9.30;100.00
76694;BME280;69667;52.136;5.424;2023-10-31T01:04:41;99748.25;;;9.30;100.00
76694;BME280;69667;52.136;5.424;2023-10-31T01:07:10;99750.81;;;9.32;100.00
76694;BME280;69667;52.136;5.424;2023-10-31T01:09:39;99753.38;;;9.33;100.00
76694;BME280;69667;52.136;5.424;2023-10-31T01:12:07;99752.25;;;9.36;100.00
76694;BME280;69667;52.136;5.424;2023-10-31T01:14:37;99754.22;;;9.34;100.00
76694;BME280;69667;52.136;5.424;2023-10-31T01:17:05;99764.13;;;9.33;100.00
76694;BME280;69667;52.136;5.424;2023-10-31T01:19:34;99763.91;;;9.36;100.00
76694;BME280;69667;52.136;5.424;2023-10-31T01:22:02;99760.19;;;9.37;100.00
76694;BME280;69667;52.136;5.424;2023-10-31T01:24:31;99771.69;;;9.39;100.00
76694;BME280;69667;52.136;5.424;2023-10-31T01:26:59;99769.28;;;9.36;100.00
76694;BME280;69667;52.136;5.424;2023-10-31T01:29:27;99774.66;;;9.36;100.00
76694;BME280;69667;52.136;5.424;2023-10-31T01:31:56;99774.53;;;9.38;100.00
76694;BME280;69667;52.136;5.424;2023-10-31T01:34:29;99777.81;;;9.41;100.00
76694;BME280;69667;52.136;5.424;2023-10-31T01:36:57;99779.50;;;9.42;100.00
76694;BME280;69667;52.136;5.424;2023-10-31T01:39:26;99788.16;;;9.46;100.00
76694;BME280;69667;52.136;5.424;2023-10-31T01:41:54;99786.22;;;9.48;100.00
76694;BME280;69667;52.136;5.424;2023-10-31T01:44:23;99790.47;;;9.50;100.00
76694;BME280;69667;52.136;5.424;2023-10-31T01:46:52;99790.47;;;9.50;100.00
76694;BME280;69667;52.136;5.424;2023-10-31T01:49:20;99778.81;;;9.50;100.00
76694;BME280;69667;52.136;5.424;2023-10-31T01:51:49;99784.78;;;9.53;100.00
76694;BME280;69667;52.136;5.424;2023-10-31T01:54:17;99790.75;;;9.57;100.00
76694;BME280;69667;52.136;5.424;2023-10-31T01:56:45;99782.69;;;9.57;100.00
76694;BME280;69667;52.136;5.424;2023-10-31T01:59:18;99787.78;;;9.60;100.00
76694;BME280;69667;52.136;5.424;2023-10-31T02:01:46;99779.84;;;9.58;100.00
76694;BME280;69667;52.136;5.424;2023-10-31T02:04:15;99785.97;;;9.60;100.00
76694;BME280;69667;52.136;5.424;2023-10-31T02:06:43;99787.94;;;9.58;100.00
76694;BME280;69667;52.136;5.424;2023-10-31T02:09:11;99779.03;;;9.58;100.00
76694;BME280;69667;52.136;5.424;2023-10-31T02:11:39;99783.41;;;9.59;100.00
76694;BME280;69667;52.136;5.424;2023-10-31T02:14:07;99784.13;;;9.61;100.00
76694;BME280;69667;52.136;5.424;2023-10-31T02:16:36;99784.84;;;9.63;100.00
76694;BME280;69667;52.136;5.424;2023-10-31T02:19:04;99790.25;;;9.63;100.00
76694;BME280;69667;52.136;5.424;2023-10-31T02:21:33;99787.28;;;9.66;100.00
76694;BME280;69667;52.136;5.424;2023-10-31T02:24:02;99782.84;;;9.65;100.00
76694;BME280;69667;52.136;5.424;2023-10-31T02:26:31;99787.41;;;9.64;100.00
76694;BME280;69667;52.136;5.424;2023-10-31T02:29:01;99789.25;;;9.64;100.00
76694;BME280;69667;52.136;5.424;2023-10-31T02:31:30;99780.16;;;9.65;100.00
76694;BME280;69667;52.136;5.424;2023-10-31T02:33:58;99788.97;;;9.67;100.00
76694;BME280;69667;52.136;5.424;2023-10-31T02:36:26;99789.09;;;9.65;100.00
76694;BME280;69667;52.136;5.424;2023-10-31T02:38:55;99787.56;;;9.63;100.00
76694;BME280;69667;52.136;5.424;2023-10-31T02:41:23;99788.53;;;9.62;100.00
76694;BME280;69667;52.136;5.424;2023-10-31T02:43:51;99795.63;;;9.63;100.00
76694;BME280;69667;52.136;5.424;2023-10-31T02:46:22;99793.78;;;9.63;100.00
76694;BME280;69667;52.136;5.424;2023-10-31T02:48:50;99803.56;;;9.64;100.00
76694;BME280;69667;52.136;5.424;2023-10-31T02:51:19;99801.03;;;9.63;100.00
76694;BME280;69667;52.136;5.424;2023-10-31T02:53:47;99803.00;;;9.61;100.00
76694;BME280;69667;52.136;5.424;2023-10-31T02:56:15;99805.56;;;9.62;100.00
76694;BME280;69667;52.136;5.424;2023-10-31T02:58:44;99808.38;;;9.61;100.00
76694;BME280;69667;52.136;5.424;2023-10-31T03:01:13;99805.69;;;9.61;100.00
76694;BME280;69667;52.136;5.424;2023-10-31T03:03:41;99820.03;;;9.61;100.00
76694;BME280;69667;52.136;5.424;2023-10-31T03:06:09;99815.47;;;9.62;100.00
76694;BME280;69667;52.136;5.424;2023-10-31T03:08:37;99814.75;;;9.60;100.00
76694;BME280;69667;52.136;5.424;2023-10-31T03:11:07;99810.34;;;9.59;100.00
76694;BME280;69667;52.136;5.424;2023-10-31T03:13:35;99822.13;;;9.58;100.00
76694;BME280;69667;52.136;5.424;2023-10-31T03:16:03;99824.69;;;9.59;100.00
76694;BME280;69667;52.136;5.424;2023-10-31T03:18:31;99829.34;;;9.57;100.00
76694;BME280;69667;52.136;5.424;2023-10-31T03:21:00;99835.59;;;9.58;100.00
76694;BME280;69667;52.136;5.424;2023-10-31T03:23:28;99836.44;;;9.58;100.00
76694;BME280;69667;52.136;5.424;2023-10-31T03:25:56;99838.97;;;9.60;100.00
76694;BME280;69667;52.136;5.424;2023-10-31T03:28:24;99847.06;;;9.60;100.00
76694;BME280;69667;52.136;5.424;2023-10-31T03:30:53;99855.88;;;9.62;100.00
76694;BME280;69667;52.136;5.424;2023-10-31T03:33:22;99862.13;;;9.62;100.00
76694;BME280;69667;52.136;5.424;2023-10-31T03:35:51;99868.38;;;9.63;100.00
76694;BME280;69667;52.136;5.424;2023-10-31T03:38:19;99864.69;;;9.64;100.00
76694;BME280;69667;52.136;5.424;2023-10-31T03:40:47;99870.94;;;9.64;100.00
76694;BME280;69667;52.136;5.424;2023-10-31T03:43:16;99879.97;;;9.63;100.00
76694;BME280;69667;52.136;5.424;2023-10-31T03:45:45;99880.84;;;9.64;100.00
76694;BME280;69667;52.136;5.424;2023-10-31T03:48:13;99877.28;;;9.63;100.00
76694;BME280;69667;52.136;5.424;2023-10-31T03:50:42;99887.25;;;9.63;100.00
76694;BME280;69667;52.136;5.424;2023-10-31T03:53:10;99893.59;;;9.62;100.00
76694;BME280;69667;52.136;5.424;2023-10-31T03:55:38;99904.38;;;9.62;100.00
76694;BME280;69667;52.136;5.424;2023-10-31T03:58:07;99903.25;;;9.64;100.00
76694;BME280;69667;52.136;5.424;2023-10-31T04:00:35;99903.41;;;9.63;100.00
76694;BME280;69667;52.136;5.424;2023-10-31T04:03:03;99914.31;;;9.61;100.00
76694;BME280;69667;52.136;5.424;2023-10-31T04:05:32;99909.03;;;9.60;100.00
76694;BME280;69667;52.136;5.424;2023-10-31T04:08:00;99915.41;;;9.59;100.00
76694;BME280;69667;52.136;5.424;2023-10-31T04:10:28;99909.16;;;9.58;100.00
76694;BME280;69667;52.136;5.424;2023-10-31T04:12:56;99916.56;;;9.56;100.00
76694;BME280;69667;52.136;5.424;2023-10-31T04:15:25;99917.66;;;9.54;100.00
76694;BME280;69667;52.136;5.424;2023-10-31T04:17:53;99918.66;;;9.53;100.00
76694;BME280;69667;52.136;5.424;2023-10-31T04:20:21;99923.16;;;9.52;100.00
76694;BME280;69667;52.136;5.424;2023-10-31T04:22:49;99920.88;;;9.48;100.00
76694;BME280;69667;52.136;5.424;2023-10-31T04:25:18;99930.06;;;9.45;100.00
76694;BME280;69667;52.136;5.424;2023-10-31T04:27:46;99930.06;;;9.45;100.00
76694;BME280;69667;52.136;5.424;2023-10-31T04:30:15;99936.56;;;9.43;100.00
76694;BME280;69667;52.136;5.424;2023-10-31T04:32:43;99934.84;;;9.42;100.00
76694;BME280;69667;52.136;5.424;2023-10-31T04:35:11;99930.47;;;9.41;100.00
76694;BME280;69667;52.136;5.424;2023-10-31T04:37:40;99933.16;;;9.41;100.00
76694;BME280;69667;52.136;5.424;2023-10-31T04:40:08;99940.38;;;9.40;100.00
76694;BME280;69667;52.136;5.424;2023-10-31T04:42:39;99935.97;;;9.39;100.00
76694;BME280;69667;52.136;5.424;2023-10-31T04:45:08;99941.38;;;9.39;100.00
76694;BME280;69667;52.136;5.424;2023-10-31T04:47:36;99939.50;;;9.40;100.00
76694;BME280;69667;52.136;5.424;2023-10-31T04:50:05;99950.19;;;9.41;100.00
76694;BME280;69667;52.136;5.424;2023-10-31T04:52:33;99951.00;;;9.42;100.00
76694;BME280;69667;52.136;5.424;2023-10-31T04:55:01;99943.78;;;9.42;100.00
76694;BME280;69667;52.136;5.424;2023-10-31T04:57:30;99938.69;;;9.39;100.00
76694;BME280;69667;52.136;5.424;2023-10-31T04:59:59;99955.09;;;9.36;100.00
76694;BME280;69667;52.136;5.424;2023-10-31T05:02:27;99950.06;;;9.32;100.00
76694;BME280;69667;52.136;5.424;2023-10-31T05:04:56;99952.78;;;9.32;100.00
76694;BME280;69667;52.136;5.424;2023-10-31T05:07:25;99944.69;;;9.32;100.00
76694;BME280;69667;52.136;5.424;2023-10-31T05:09:53;99948.38;;;9.31;100.00
76694;BME280;69667;52.136;5.424;2023-10-31T05:12:21;99961.97;;;9.29;100.00
76694;BME280;69667;52.136;5.424;2023-10-31T05:14:50;99956.72;;;9.28;100.00
76694;BME280;69667;52.136;5.424;2023-10-31T05:17:18;99966.91;;;9.24;100.00
76694;BME280;69667;52.136;5.424;2023-10-31T05:19:47;99970.31;;;9.26;100.00
76694;BME280;69667;52.136;5.424;2023-10-31T05:22:16;99974.09;;;9.24;100.00
76694;BME280;69667;52.136;5.424;2023-10-31T05:24:44;99979.38;;;9.25;100.00
76694;BME280;69667;52.136;5.424;2023-10-31T05:27:12;99972.63;;;9.20;100.00
76694;BME280;69667;52.136;5.424;2023-10-31T05:29:41;99979.88;;;9.19;100.00
76694;BME280;69667;52.136;5.424;2023-10-31T05:32:09;99981.72;;;9.19;100.00
76694;BME280;69667;52.136;5.424;2023-10-31T05:34:37;99979.16;;;9.17;100.00
76694;BME280;69667;52.136;5.424;2023-10-31T05:37:05;99986.50;;;9.15;100.00
76694;BME280;69667;52.136;5.424;2023-10-31T05:39:34;99990.31;;;9.13;100.00
76694;BME280;69667;52.136;5.424;2023-10-31T05:42:04;100002.03;;;9.12;100.00
76694;BME280;69667;52.136;5.424;2023-10-31T05:44:32;100005.59;;;9.12;100.00
76694;BME280;69667;52.136;5.424;2023-10-31T05:47:00;100006.69;;;9.10;100.00
76694;BME280;69667;52.136;5.424;2023-10-31T05:49:28;100006.94;;;9.07;100.00
76694;BME280;69667;52.136;5.424;2023-10-31T05:51:57;100012.06;;;9.10;100.00
76694;BME280;69667;52.136;5.424;2023-10-31T05:54:25;100012.34;;;9.07;100.00
76694;BME280;69667;52.136;5.424;2023-10-31T05:56:54;100014.06;;;9.08;100.00
76694;BME280;69667;52.136;5.424;2023-10-31T05:59:22;100015.03;;;9.07;100.00
76694;BME280;69667;52.136;5.424;2023-10-31T06:01:50;100005.25;;;9.06;100.00
76694;BME280;69667;52.136;5.424;2023-10-31T06:04:18;100014.41;;;9.03;100.00
76694;BME280;69667;52.136;5.424;2023-10-31T06:06:47;100009.91;;;9.04;100.00
76694;BME280;69667;52.136;5.424;2023-10-31T06:09:15;100015.28;;;9.04;100.00
76694;BME280;69667;52.136;5.424;2023-10-31T06:11:43;100025.06;;;9.05;100.00
76694;BME280;69667;52.136;5.424;2023-10-31T06:14:12;100022.38;;;9.05;100.00
76694;BME280;69667;52.136;5.424;2023-10-31T06:16:41;100032.31;;;9.04;100.00
76694;BME280;69667;52.136;5.424;2023-10-31T06:19:10;100027.75;;;9.05;100.00
76694;BME280;69667;52.136;5.424;2023-10-31T06:21:38;100030.56;;;9.03;100.00
76694;BME280;69667;52.136;5.424;2023-10-31T06:24:07;100034.38;;;9.01;100.00
76694;BME280;69667;52.136;5.424;2023-10-31T06:26:35;100040.75;;;9.00;100.00
76694;BME280;69667;52.136;5.424;2023-10-31T06:29:04;100035.38;;;9.00;100.00
76694;BME280;69667;52.136;5.424;2023-10-31T06:31:52;100039.03;;;8.98;100.00
76694;BME280;69667;52.136;5.424;2023-10-31T06:34:20;100046.97;;;9.00;100.00
76694;BME280;69667;52.136;5.424;2023-10-31T06:36:48;100050.53;;;9.01;100.00
76694;BME280;69667;52.136;5.424;2023-10-31T06:39:17;100051.41;;;9.01;100.00
76694;BME280;69667;52.136;5.424;2023-10-31T06:41:45;100053.22;;;9.01;100.00
76694;BME280;69667;52.136;5.424;2023-10-31T06:44:13;100052.09;;;9.03;100.00
76694;BME280;69667;52.136;5.424;2023-10-31T06:46:41;100055.78;;;9.02;100.00
76694;BME280;69667;52.136;5.424;2023-10-31T06:49:10;100063.00;;;9.02;100.00
76694;BME280;69667;52.136;5.424;2023-10-31T06:51:38;100061.44;;;8.99;100.00
76694;BME280;69667;52.136;5.424;2023-10-31T06:54:06;100073.06;;;9.00;100.00
76694;BME280;69667;52.136;5.424;2023-10-31T06:56:35;100072.94;;;9.01;100.00
76694;BME280;69667;52.136;5.424;2023-10-31T06:59:04;100071.69;;;9.05;100.00
76694;BME280;69667;52.136;5.424;2023-10-31T07:01:32;100073.41;;;9.06;100.00
76694;BME280;69667;52.136;5.424;2023-10-31T07:04:01;100072.53;;;9.06;100.00
76694;BME280;69667;52.136;5.424;2023-10-31T07:06:29;100071.56;;;9.07;100.00
76694;BME280;69667;52.136;5.424;2023-10-31T07:08:57;100078.91;;;9.05;100.00
76694;BME280;69667;52.136;5.424;2023-10-31T07:11:27;100085.13;;;9.05;100.00
76694;BME280;69667;52.136;5.424;2023-10-31T07:14:01;100081.50;;;9.06;100.00
76694;BME280;69667;52.136;5.424;2023-10-31T07:16:32;100082.31;;;9.07;100.00
76694;BME280;69667;52.136;5.424;2023-10-31T07:19:00;100088.44;;;9.09;100.00
76694;BME280;69667;52.136;5.424;2023-10-31T07:21:29;100093.56;;;9.12;100.00
76694;BME280;69667;52.136;5.424;2023-10-31T07:23:57;100093.22;;;9.16;100.00
76694;BME280;69667;52.136;5.424;2023-10-31T07:26:26;100101.41;;;9.26;100.00
76694;BME280;69667;52.136;5.424;2023-10-31T07:28:54;100100.63;;;9.35;100.00
76694;BME280;69667;52.136;5.424;2023-10-31T07:31:23;100102.44;;;9.45;100.00
76694;BME280;69667;52.136;5.424;2023-10-31T07:33:51;100119.69;;;9.54;100.00
76694;BME280;69667;52.136;5.424;2023-10-31T07:36:19;100103.41;;;9.55;100.00
76694;BME280;69667;52.136;5.424;2023-10-31T07:38:48;100118.59;;;9.56;100.00
76694;BME280;69667;52.136;5.424;2023-10-31T07:41:16;100117.00;;;9.54;100.00
76694;BME280;69667;52.136;5.424;2023-10-31T07:43:44;100120.91;;;9.50;100.00
76694;BME280;69667;52.136;5.424;2023-10-31T07:46:12;100119.34;;;9.47;100.00
76694;BME280;69667;52.136;5.424;2023-10-31T07:48:41;100123.72;;;9.48;100.00
76694;BME280;69667;52.136;5.424;2023-10-31T07:51:09;100119.22;;;9.49;100.00
76694;BME280;69667;52.136;5.424;2023-10-31T07:53:37;100122.13;;;9.57;100.00
76694;BME280;69667;52.136;5.424;2023-10-31T07:56:14;100125.16;;;9.63;100.00
76694;BME280;69667;52.136;5.424;2023-10-31T07:58:43;100131.63;;;9.72;100.00
76694;BME280;69667;52.136;5.424;2023-10-31T08:01:11;100134.06;;;9.75;100.00
76694;BME280;69667;52.136;5.424;2023-10-31T08:03:40;100128.31;;;9.79;100.00
76694;BME280;69667;52.136;5.424;2023-10-31T08:06:08;100132.44;;;9.83;100.00
76694;BME280;69667;52.136;5.424;2023-10-31T08:08:36;100140.66;;;9.82;100.00
76694;BME280;69667;52.136;5.424;2023-10-31T08:11:08;100141.94;;;9.78;100.00
76694;BME280;69667;52.136;5.424;2023-10-31T08:13:37;100143.88;;;9.76;100.00
76694;BME280;69667;52.136;5.424;2023-10-31T08:16:06;100139.84;;;9.70;100.00
76694;BME280;69667;52.136;5.424;2023-10-31T08:18:35;100142.53;;;9.70;100.00
76694;BME280;69667;52.136;5.424;2023-10-31T08:21:04;100141.06;;;9.77;100.00
76694;BME280;69667;52.136;5.424;2023-10-31T08:23:32;100140.03;;;9.89;100.00
76694;BME280;69667;52.136;5.424;2023-10-31T08:26:01;100147.94;;;10.02;100.00
76694;BME280;69667;52.136;5.424;2023-10-31T08:28:29;100145.66;;;9.97;100.00
76694;BME280;69667;52.136;5.424;2023-10-31T08:30:58;100148.47;;;9.96;100.00
76694;BME280;69667;52.136;5.424;2023-10-31T08:33:26;100143.69;;;9.99;100.00
76694;BME280;69667;52.136;5.424;2023-10-31T08:35:54;100144.66;;;10.09;100.00
76694;BME280;69667;52.136;5.424;2023-10-31T08:38:22;100155.63;;;10.17;100.00
76694;BME280;69667;52.136;5.424;2023-10-31T08:40:58;100153.59;;;10.31;100.00
76694;BME280;69667;52.136;5.424;2023-10-31T08:43:26;100161.25;;;10.46;100.00
76694;BME280;69667;52.136;5.424;2023-10-31T08:45:54;100154.69;;;10.60;100.00
76694;BME280;69667;52.136;5.424;2023-10-31T08:48:23;100156.56;;;10.69;100.00
76694;BME280;69667;52.136;5.424;2023-10-31T08:50:52;100163.88;;;10.78;100.00
76694;BME280;69667;52.136;5.424;2023-10-31T08:53:20;100157.41;;;10.90;100.00
76694;BME280;69667;52.136;5.424;2023-10-31T08:55:48;100161.88;;;11.10;100.00
76694;BME280;69667;52.136;5.424;2023-10-31T08:58:16;100164.19;;;11.14;100.00
76694;BME280;69667;52.136;5.424;2023-10-31T09:00:45;100173.28;;;11.13;100.00
76694;BME280;69667;52.136;5.424;2023-10-31T09:03:14;100177.44;;;11.17;100.00
76694;BME280;69667;52.136;5.424;2023-10-31T09:05:42;100182.38;;;11.12;100.00
76694;BME280;69667;52.136;5.424;2023-10-31T09:08:11;100191.56;;;11.00;100.00
76694;BME280;69667;52.136;5.424;2023-10-31T09:10:39;100188.56;;;11.03;100.00
76694;BME280;69667;52.136;5.424;2023-10-31T09:13:10;100207.88;;;11.99;100.00
76694;BME280;69667;52.136;5.424;2023-10-31T09:15:38;100192.75;;;12.92;100.00
76694;BME280;69667;52.136;5.424;2023-10-31T09:18:06;100191.81;;;13.29;100.00
76694;BME280;69667;52.136;5.424;2023-10-31T09:20:35;100203.50;;;12.45;100.00
76694;BME280;69667;52.136;5.424;2023-10-31T09:23:03;100210.28;;;12.02;100.00
76694;BME280;69667;52.136;5.424;2023-10-31T09:25:32;100210.94;;;11.75;100.00
76694;BME280;69667;52.136;5.424;2023-10-31T09:28:00;100212.28;;;11.60;100.00
76694;BME280;69667;52.136;5.424;2023-10-31T09:30:29;100220.69;;;11.57;100.00
76694;BME280;69667;52.136;5.424;2023-10-31T09:32:57;100220.03;;;11.65;100.00
76694;BME280;69667;52.136;5.424;2023-10-31T09:35:26;100218.47;;;11.72;100.00
76694;BME280;69667;52.136;5.424;2023-10-31T09:37:55;100223.38;;;11.97;100.00
76694;BME280;69667;52.136;5.424;2023-10-31T09:40:23;100227.38;;;12.12;100.00
76694;BME280;69667;52.136;5.424;2023-10-31T09:42:52;100217.00;;;12.74;100.00
76694;BME280;69667;52.136;5.424;2023-10-31T09:45:20;100212.69;;;14.00;100.00
76694;BME280;69667;52.136;5.424;2023-10-31T09:47:48;100216.88;;;14.75;100.00
76694;BME280;69667;52.136;5.424;2023-10-31T09:50:16;100228.97;;;14.00;100.00
76694;BME280;69667;52.136;5.424;2023-10-31T09:52:45;100229.25;;;13.07;100.00
76694;BME280;69667;52.136;5.424;2023-10-31T09:55:14;100243.63;;;13.07;100.00
76694;BME280;69667;52.136;5.424;2023-10-31T09:57:43;100234.06;;;13.22;100.00
76694;BME280;69667;52.136;5.424;2023-10-31T10:00:11;100238.69;;;14.03;100.00
76694;BME280;69667;52.136;5.424;2023-10-31T10:02:40;100246.22;;;13.82;100.00
76694;BME280;69667;52.136;5.424;2023-10-31T10:05:09;100243.56;;;16.97;100.00
76694;BME280;69667;52.136;5.424;2023-10-31T10:07:41;100240.34;;;18.50;100.00
76694;BME280;69667;52.136;5.424;2023-10-31T10:10:12;100252.22;;;17.17;100.00
76694;BME280;69667;52.136;5.424;2023-10-31T10:12:43;100248.94;;;16.49;100.00
76694;BME280;69667;52.136;5.424;2023-10-31T10:15:11;100255.25;;;17.38;100.00
76694;BME280;69667;52.136;5.424;2023-10-31T10:17:48;100256.16;;;16.98;100.00
76694;BME280;69667;52.136;5.424;2023-10-31T10:20:17;100250.47;;;17.56;100.00
76694;BME280;69667;52.136;5.424;2023-10-31T10:22:46;100254.94;;;16.85;100.00
76694;BME280;69667;52.136;5.424;2023-10-31T10:25:17;100264.22;;;14.90;100.00
76694;BME280;69667;52.136;5.424;2023-10-31T10:27:46;100272.50;;;13.81;100.00
76694;BME280;69667;52.136;5.424;2023-10-31T10:30:15;100279.13;;;13.69;100.00
76694;BME280;69667;52.136;5.424;2023-10-31T10:32:44;100273.19;;;13.56;100.00
76694;BME280;69667;52.136;5.424;2023-10-31T10:35:12;100271.66;;;16.90;100.00
76694;BME280;69667;52.136;5.424;2023-10-31T10:37:43;100259.34;;;19.85;100.00
76694;BME280;69667;52.136;5.424;2023-10-31T10:40:15;100251.34;;;20.70;100.00
76694;BME280;69667;52.136;5.424;2023-10-31T10:42:47;100261.03;;;20.30;100.00
76694;BME280;69667;52.136;5.424;2023-10-31T10:45:18;100268.22;;;18.99;100.00
76694;BME280;69667;52.136;5.424;2023-10-31T10:47:50;100273.69;;;17.52;100.00
76694;BME280;69667;52.136;5.424;2023-10-31T10:50:19;100276.09;;;16.99;100.00
76694;BME280;69667;52.136;5.424;2023-10-31T10:52:54;100277.97;;;16.32;100.00
76694;BME280;69667;52.136;5.424;2023-10-31T10:55:30;100277.22;;;16.06;100.00
76694;BME280;69667;52.136;5.424;2023-10-31T10:58:08;100283.88;;;16.46;100.00
76694;BME280;69667;52.136;5.424;2023-10-31T11:00:39;100283.06;;;15.86;100.00
76694;BME280;69667;52.136;5.424;2023-10-31T11:03:09;100275.34;;;15.65;100.00
76694;BME280;69667;52.136;5.424;2023-10-31T11:05:38;100275.25;;;15.57;100.00
76694;BME280;69667;52.136;5.424;2023-10-31T11:08:06;100272.75;;;15.38;100.00
76694;BME280;69667;52.136;5.424;2023-10-31T11:10:35;100279.13;;;15.29;100.00
76694;BME280;69667;52.136;5.424;2023-10-31T11:13:04;100279.34;;;15.10;100.00
76694;BME280;69667;52.136;5.424;2023-10-31T11:15:32;100280.59;;;14.80;100.00
76694;BME280;69667;52.136;5.424;2023-10-31T11:18:01;100280.53;;;14.72;100.00
76694;BME280;69667;52.136;5.424;2023-10-31T11:20:31;100289.75;;;14.79;100.00
76694;BME280;69667;52.136;5.424;2023-10-31T11:22:59;100289.59;;;14.81;100.00
76694;BME280;69667;52.136;5.424;2023-10-31T11:25:33;100287.19;;;14.95;100.00
76694;BME280;69667;52.136;5.424;2023-10-31T11:30:41;100298.28;;;14.22;100.00
76694;BME280;69667;52.136;5.424;2023-10-31T11:33:14;100297.22;;;14.06;100.00
76694;BME280;69667;52.136;5.424;2023-10-31T11:35:43;100303.34;;;13.80;100.00
76694;BME280;69667;52.136;5.424;2023-10-31T11:38:14;100301.13;;;13.66;100.00
76694;BME280;69667;52.136;5.424;2023-10-31T11:43:17;100309.75;;;13.43;100.00
76694;BME280;69667;52.136;5.424;2023-10-31T11:45:45;100295.66;;;13.20;100.00
76694;BME280;69667;52.136;5.424;2023-10-31T11:48:15;100318.34;;;13.00;100.00
76694;BME280;69667;52.136;5.424;2023-10-31T11:50:43;100310.38;;;12.89;100.00
76694;BME280;69667;52.136;5.424;2023-10-31T11:53:13;100313.94;;;12.80;100.00
76694;BME280;69667;52.136;5.424;2023-10-31T11:55:45;100310.38;;;12.89;100.00
76694;BME280;69667;52.136;5.424;2023-10-31T11:58:24;100321.34;;;12.97;100.00
76694;BME280;69667;52.136;5.424;2023-10-31T12:01:01;100318.34;;;13.00;100.00
76694;BME280;69667;52.136;5.424;2023-10-31T12:03:40;100319.50;;;12.98;100.00
76694;BME280;69667;52.136;5.424;2023-10-31T12:06:10;100318.63;;;12.88;100.00
76694;BME280;69667;52.136;5.424;2023-10-31T12:08:40;100323.34;;;12.76;100.00
76694;BME280;69667;52.136;5.424;2023-10-31T12:11:13;100327.59;;;12.69;100.00
76694;BME280;69667;52.136;5.424;2023-10-31T12:14:00;100318.34;;;12.62;100.00
76694;BME280;69667;52.136;5.424;2023-10-31T12:16:30;100324.19;;;12.67;100.00
76694;BME280;69667;52.136;5.424;2023-10-31T12:19:04;100337.91;;;12.75;100.00
76694;BME280;69667;52.136;5.424;2023-10-31T12:21:46;100334.59;;;12.81;100.00
76694;BME280;69667;52.136;5.424;2023-10-31T12:24:17;100330.47;;;12.77;100.00
76694;BME280;69667;52.136;5.424;2023-10-31T12:26:46;100335.31;;;12.73;100.00
76694;BME280;69667;52.136;5.424;2023-10-31T12:29:18;100344.16;;;12.66;100.00
76694;BME280;69667;52.136;5.424;2023-10-31T12:31:49;100341.00;;;12.51;100.00
76694;BME280;69667;52.136;5.424;2023-10-31T12:34:21;100349.81;;;12.44;100.00
76694;BME280;69667;52.136;5.424;2023-10-31T12:36:52;100354.34;;;12.34;100.00
76694;BME280;69667;52.136;5.424;2023-10-31T12:39:25;100357.91;;;12.34;100.00
76694;BME280;69667;52.136;5.424;2023-10-31T12:41:54;100363.03;;;12.37;100.00
76694;BME280;69667;52.136;5.424;2023-10-31T12:44:25;100363.19;;;12.36;100.00
76694;BME280;69667;52.136;5.424;2023-10-31T12:46:56;100366.75;;;12.46;100.00
76694;BME280;69667;52.136;5.424;2023-10-31T12:49:24;100364.94;;;12.46;100.00
76694;BME280;69667;52.136;5.424;2023-10-31T12:52:03;100378.19;;;12.59;100.00
76694;BME280;69667;52.136;5.424;2023-10-31T12:54:34;100378.63;;;12.64;100.00
76694;BME280;69667;52.136;5.424;2023-10-31T12:57:07;100378.47;;;12.56;100.00
76694;BME280;69667;52.136;5.424;2023-10-31T12:59:37;100374.63;;;12.58;100.00
76694;BME280;69667;52.136;5.424;2023-10-31T13:02:07;100375.03;;;12.54;100.00
76694;BME280;69667;52.136;5.424;2023-10-31T13:04:36;100374.31;;;12.42;100.00